sensor_id;sensor_type;location;lat;lon;timestamp;pressure;altitude;pressure_sealevel;temperature
71081;BMP180;58740;50.672;18.690;2023-07-29T00:02:06;98413.80;;;18.80
71081;BMP180;58740;50.672;18.690;2023-07-29T00:04:34;98408.60;;;18.70
71081;BMP180;58740;50.672;18.690;2023-07-29T00:07:02;98414.80;;;18.70
71081;BMP180;58740;50.672;18.690;2023-07-29T00:09:30;98412.80;;;18.60
71081;BMP180;58740;50.672;18.690;2023-07-29T00:11:57;98411.60;;;18.56
71081;BMP180;58740;50.672;18.690;2023-07-29T00:14:25;98413.40;;;18.50
71081;BMP180;58740;50.672;18.690;2023-07-29T00:16:53;98413.00;;;18.50
71081;BMP180;58740;50.672;18.690;2023-07-29T00:19:20;98416.20;;;18.40
71081;BMP180;58740;50.672;18.690;2023-07-29T00:21:51;98418.40;;;18.40
71081;BMP180;58740;50.672;18.690;2023-07-29T00:24:18;98413.60;;;18.34
71081;BMP180;58740;50.672;18.690;2023-07-29T00:26:46;98410.40;;;18.30
71081;BMP180;58740;50.672;18.690;2023-07-29T00:29:14;98409.60;;;18.30
71081;BMP180;58740;50.672;18.690;2023-07-29T00:31:41;98405.40;;;18.22
71081;BMP180;58740;50.672;18.690;2023-07-29T00:34:09;98408.00;;;18.20
71081;BMP180;58740;50.672;18.690;2023-07-29T00:36:37;98407.40;;;18.20
71081;BMP180;58740;50.672;18.690;2023-07-29T00:39:05;98411.40;;;18.20
71081;BMP180;58740;50.672;18.690;2023-07-29T00:41:33;98410.80;;;18.10
71081;BMP180;58740;50.672;18.690;2023-07-29T00:44:00;98415.20;;;18.10
71081;BMP180;58740;50.672;18.690;2023-07-29T00:46:28;98405.40;;;18.10
71081;BMP180;58740;50.672;18.690;2023-07-29T00:48:57;98407.20;;;18.10
71081;BMP180;58740;50.672;18.690;2023-07-29T00:51:24;98405.40;;;18.10
71081;BMP180;58740;50.672;18.690;2023-07-29T00:53:52;98406.00;;;18.04
71081;BMP180;58740;50.672;18.690;2023-07-29T00:56:20;98406.40;;;18.00
71081;BMP180;58740;50.672;18.690;2023-07-29T00:58:49;98405.40;;;18.00
71081;BMP180;58740;50.672;18.690;2023-07-29T01:01:17;98401.40;;;17.92
71081;BMP180;58740;50.672;18.690;2023-07-29T01:03:45;98402.80;;;17.90
71081;BMP180;58740;50.672;18.690;2023-07-29T01:06:52;98401.80;;;17.90
71081;BMP180;58740;50.672;18.690;2023-07-29T01:10:06;98403.60;;;17.90
71081;BMP180;58740;50.672;18.690;2023-07-29T01:15:43;98396.60;;;17.90
71081;BMP180;58740;50.672;18.690;2023-07-29T01:18:28;98395.00;;;17.82
71081;BMP180;58740;50.672;18.690;2023-07-29T01:21:04;98395.40;;;17.80
71081;BMP180;58740;50.672;18.690;2023-07-29T01:23:34;98393.80;;;17.80
71081;BMP180;58740;50.672;18.690;2023-07-29T01:26:03;98397.80;;;17.80
71081;BMP180;58740;50.672;18.690;2023-07-29T01:28:31;98407.20;;;17.80
71081;BMP180;58740;50.672;18.690;2023-07-29T01:31:15;98404.20;;;17.70
71081;BMP180;58740;50.672;18.690;2023-07-29T01:34:01;98402.80;;;17.70
71081;BMP180;58740;50.672;18.690;2023-07-29T01:36:37;98405.40;;;17.70
71081;BMP180;58740;50.672;18.690;2023-07-29T01:39:10;98401.60;;;17.60
71081;BMP180;58740;50.672;18.690;2023-07-29T01:41:40;98400.40;;;17.60
71081;BMP180;58740;50.672;18.690;2023-07-29T01:44:09;98408.40;;;17.60
71081;BMP180;58740;50.672;18.690;2023-07-29T01:46:38;98401.40;;;17.60
71081;BMP180;58740;50.672;18.690;2023-07-29T01:49:06;98398.00;;;17.60
71081;BMP180;58740;50.672;18.690;2023-07-29T01:51:33;98402.00;;;17.50
71081;BMP180;58740;50.672;18.690;2023-07-29T01:54:01;98399.60;;;17.50
71081;BMP180;58740;50.672;18.690;2023-07-29T01:56:29;98400.40;;;17.50
71081;BMP180;58740;50.672;18.690;2023-07-29T01:58:56;98402.80;;;17.50
71081;BMP180;58740;50.672;18.690;2023-07-29T02:01:24;98406.80;;;17.48
71081;BMP180;58740;50.672;18.690;2023-07-29T02:03:52;98403.60;;;17.50
71081;BMP180;58740;50.672;18.690;2023-07-29T02:06:23;98407.20;;;17.48
71081;BMP180;58740;50.672;18.690;2023-07-29T02:08:52;98409.20;;;17.42
71081;BMP180;58740;50.672;18.690;2023-07-29T02:11:20;98408.20;;;17.40
71081;BMP180;58740;50.672;18.690;2023-07-29T02:13:55;98413.00;;;17.40
71081;BMP180;58740;50.672;18.690;2023-07-29T02:16:23;98412.80;;;17.40
71081;BMP180;58740;50.672;18.690;2023-07-29T02:18:51;98414.20;;;17.40
71081;BMP180;58740;50.672;18.690;2023-07-29T02:21:22;98413.80;;;17.40
71081;BMP180;58740;50.672;18.690;2023-07-29T02:23:50;98419.20;;;17.40
71081;BMP180;58740;50.672;18.690;2023-07-29T02:26:18;98417.80;;;17.40
71081;BMP180;58740;50.672;18.690;2023-07-29T02:28:46;98417.60;;;17.40
71081;BMP180;58740;50.672;18.690;2023-07-29T02:31:22;98419.40;;;17.40
71081;BMP180;58740;50.672;18.690;2023-07-29T02:33:51;98423.60;;;17.40
71081;BMP180;58740;50.672;18.690;2023-07-29T02:36:19;98421.40;;;17.38
71081;BMP180;58740;50.672;18.690;2023-07-29T02:38:47;98426.80;;;17.38
71081;BMP180;58740;50.672;18.690;2023-07-29T02:41:15;98429.60;;;17.34
71081;BMP180;58740;50.672;18.690;2023-07-29T02:43:48;98427.60;;;17.30
71081;BMP180;58740;50.672;18.690;2023-07-29T02:46:17;98428.40;;;17.30
71081;BMP180;58740;50.672;18.690;2023-07-29T02:48:45;98424.00;;;17.30
71081;BMP180;58740;50.672;18.690;2023-07-29T02:51:13;98426.00;;;17.30
71081;BMP180;58740;50.672;18.690;2023-07-29T02:53:41;98430.20;;;17.30
71081;BMP180;58740;50.672;18.690;2023-07-29T02:56:08;98426.80;;;17.30
71081;BMP180;58740;50.672;18.690;2023-07-29T02:58:37;98424.60;;;17.20
71081;BMP180;58740;50.672;18.690;2023-07-29T03:01:06;98423.80;;;17.20
71081;BMP180;58740;50.672;18.690;2023-07-29T03:03:34;98424.20;;;17.20
71081;BMP180;58740;50.672;18.690;2023-07-29T03:06:05;98419.80;;;17.20
71081;BMP180;58740;50.672;18.690;2023-07-29T03:08:34;98419.40;;;17.14
71081;BMP180;58740;50.672;18.690;2023-07-29T03:11:07;98424.40;;;17.10
71081;BMP180;58740;50.672;18.690;2023-07-29T03:13:36;98422.60;;;17.10
71081;BMP180;58740;50.672;18.690;2023-07-29T03:16:15;98418.40;;;17.10
71081;BMP180;58740;50.672;18.690;2023-07-29T03:18:44;98421.60;;;17.02
71081;BMP180;58740;50.672;18.690;2023-07-29T03:21:12;98422.40;;;17.02
71081;BMP180;58740;50.672;18.690;2023-07-29T03:23:40;98425.00;;;17.00
71081;BMP180;58740;50.672;18.690;2023-07-29T03:26:08;98428.00;;;17.02
71081;BMP180;58740;50.672;18.690;2023-07-29T03:28:41;98421.80;;;17.02
71081;BMP180;58740;50.672;18.690;2023-07-29T03:31:10;98418.80;;;17.02
71081;BMP180;58740;50.672;18.690;2023-07-29T03:33:39;98425.40;;;17.06
71081;BMP180;58740;50.672;18.690;2023-07-29T03:36:06;98423.00;;;17.10
71081;BMP180;58740;50.672;18.690;2023-07-29T03:38:34;98420.20;;;17.10
71081;BMP180;58740;50.672;18.690;2023-07-29T03:41:03;98423.00;;;17.10
71081;BMP180;58740;50.672;18.690;2023-07-29T03:43:30;98430.20;;;17.10
71081;BMP180;58740;50.672;18.690;2023-07-29T03:45:58;98430.60;;;17.10
71081;BMP180;58740;50.672;18.690;2023-07-29T03:48:26;98429.40;;;17.10
71081;BMP180;58740;50.672;18.690;2023-07-29T03:50:54;98432.00;;;17.18
71081;BMP180;58740;50.672;18.690;2023-07-29T03:53:22;98435.20;;;17.20
71081;BMP180;58740;50.672;18.690;2023-07-29T03:55:49;98438.80;;;17.20
71081;BMP180;58740;50.672;18.690;2023-07-29T03:58:18;98436.00;;;17.30
71081;BMP180;58740;50.672;18.690;2023-07-29T04:00:45;98436.20;;;17.30
71081;BMP180;58740;50.672;18.690;2023-07-29T04:03:13;98442.00;;;17.40
71081;BMP180;58740;50.672;18.690;2023-07-29T04:05:41;98434.40;;;17.40
71081;BMP180;58740;50.672;18.690;2023-07-29T04:08:09;98438.20;;;17.48
71081;BMP180;58740;50.672;18.690;2023-07-29T04:10:37;98441.80;;;17.50
71081;BMP180;58740;50.672;18.690;2023-07-29T04:13:05;98443.20;;;17.52
71081;BMP180;58740;50.672;18.690;2023-07-29T04:15:33;98444.20;;;17.60
71081;BMP180;58740;50.672;18.690;2023-07-29T04:18:01;98449.20;;;17.60
71081;BMP180;58740;50.672;18.690;2023-07-29T04:20:29;98451.00;;;17.64
71081;BMP180;58740;50.672;18.690;2023-07-29T04:23:08;98450.60;;;17.70
71081;BMP180;58740;50.672;18.690;2023-07-29T04:25:36;98455.60;;;17.70
71081;BMP180;58740;50.672;18.690;2023-07-29T04:28:04;98461.00;;;17.78
71081;BMP180;58740;50.672;18.690;2023-07-29T04:30:32;98452.20;;;17.80
71081;BMP180;58740;50.672;18.690;2023-07-29T04:33:00;98455.20;;;17.84
71081;BMP180;58740;50.672;18.690;2023-07-29T04:35:28;98456.00;;;17.90
71081;BMP180;58740;50.672;18.690;2023-07-29T04:37:56;98456.20;;;18.00
71081;BMP180;58740;50.672;18.690;2023-07-29T04:40:24;98454.40;;;18.00
71081;BMP180;58740;50.672;18.690;2023-07-29T04:42:52;98459.20;;;18.10
71081;BMP180;58740;50.672;18.690;2023-07-29T04:45:21;98459.80;;;18.18
71081;BMP180;58740;50.672;18.690;2023-07-29T04:47:48;98454.40;;;18.20
71081;BMP180;58740;50.672;18.690;2023-07-29T04:50:16;98459.80;;;18.30
71081;BMP180;58740;50.672;18.690;2023-07-29T04:52:44;98463.80;;;18.30
71081;BMP180;58740;50.672;18.690;2023-07-29T04:55:12;98467.00;;;18.40
71081;BMP180;58740;50.672;18.690;2023-07-29T04:57:40;98460.20;;;18.40
71081;BMP180;58740;50.672;18.690;2023-07-29T05:00:08;98464.60;;;18.50
71081;BMP180;58740;50.672;18.690;2023-07-29T05:02:36;98463.20;;;18.60
71081;BMP180;58740;50.672;18.690;2023-07-29T05:05:04;98465.00;;;18.70
71081;BMP180;58740;50.672;18.690;2023-07-29T05:07:32;98466.60;;;18.70
71081;BMP180;58740;50.672;18.690;2023-07-29T05:09:59;98470.60;;;18.80
71081;BMP180;58740;50.672;18.690;2023-07-29T05:12:27;98476.60;;;18.90
71081;BMP180;58740;50.672;18.690;2023-07-29T05:14:56;98479.40;;;19.00
71081;BMP180;58740;50.672;18.690;2023-07-29T05:17:24;98476.80;;;19.08
71081;BMP180;58740;50.672;18.690;2023-07-29T05:19:52;98471.60;;;19.14
71081;BMP180;58740;50.672;18.690;2023-07-29T05:22:20;98472.40;;;19.20
71081;BMP180;58740;50.672;18.690;2023-07-29T05:24:48;98469.20;;;19.30
71081;BMP180;58740;50.672;18.690;2023-07-29T05:27:16;98472.20;;;19.38
71081;BMP180;58740;50.672;18.690;2023-07-29T05:29:44;98472.40;;;19.48
71081;BMP180;58740;50.672;18.690;2023-07-29T05:32:12;98478.60;;;19.50
71081;BMP180;58740;50.672;18.690;2023-07-29T05:34:39;98477.60;;;19.60
71081;BMP180;58740;50.672;18.690;2023-07-29T05:37:07;98476.40;;;19.66
71081;BMP180;58740;50.672;18.690;2023-07-29T05:39:35;98470.60;;;19.70
71081;BMP180;58740;50.672;18.690;2023-07-29T05:42:03;98469.40;;;19.80
71081;BMP180;58740;50.672;18.690;2023-07-29T05:44:31;98471.40;;;19.90
71081;BMP180;58740;50.672;18.690;2023-07-29T05:46:59;98471.00;;;19.96
71081;BMP180;58740;50.672;18.690;2023-07-29T05:49:27;98471.80;;;20.02
71081;BMP180;58740;50.672;18.690;2023-07-29T05:51:55;98474.60;;;20.10
71081;BMP180;58740;50.672;18.690;2023-07-29T05:54:22;98472.60;;;20.20
71081;BMP180;58740;50.672;18.690;2023-07-29T05:56:50;98475.60;;;20.20
71081;BMP180;58740;50.672;18.690;2023-07-29T05:59:18;98472.80;;;20.30
71081;BMP180;58740;50.672;18.690;2023-07-29T06:01:46;98479.00;;;20.40
71081;BMP180;58740;50.672;18.690;2023-07-29T06:04:13;98483.40;;;20.40
71081;BMP180;58740;50.672;18.690;2023-07-29T06:06:41;98484.20;;;20.50
71081;BMP180;58740;50.672;18.690;2023-07-29T06:09:09;98485.00;;;20.60
71081;BMP180;58740;50.672;18.690;2023-07-29T06:11:36;98487.00;;;20.66
71081;BMP180;58740;50.672;18.690;2023-07-29T06:14:04;98490.40;;;20.78
71081;BMP180;58740;50.672;18.690;2023-07-29T06:16:32;98493.40;;;20.90
71081;BMP180;58740;50.672;18.690;2023-07-29T06:18:59;98493.40;;;21.00
71081;BMP180;58740;50.672;18.690;2023-07-29T06:21:27;98487.40;;;21.10
71081;BMP180;58740;50.672;18.690;2023-07-29T06:23:55;98493.60;;;21.20
71081;BMP180;58740;50.672;18.690;2023-07-29T06:26:22;98495.20;;;21.28
71081;BMP180;58740;50.672;18.690;2023-07-29T06:28:50;98493.60;;;21.38
71081;BMP180;58740;50.672;18.690;2023-07-29T06:31:18;98490.60;;;21.50
71081;BMP180;58740;50.672;18.690;2023-07-29T06:33:46;98495.80;;;21.60
71081;BMP180;58740;50.672;18.690;2023-07-29T06:36:14;98494.60;;;21.60
71081;BMP180;58740;50.672;18.690;2023-07-29T06:38:41;98496.80;;;21.70
71081;BMP180;58740;50.672;18.690;2023-07-29T06:41:09;98494.20;;;21.80
71081;BMP180;58740;50.672;18.690;2023-07-29T06:43:41;98494.80;;;21.90
71081;BMP180;58740;50.672;18.690;2023-07-29T06:46:09;98491.80;;;22.00
71081;BMP180;58740;50.672;18.690;2023-07-29T06:48:37;98493.80;;;22.18
71081;BMP180;58740;50.672;18.690;2023-07-29T06:51:05;98492.40;;;22.30
71081;BMP180;58740;50.672;18.690;2023-07-29T06:53:32;98488.40;;;22.36
71081;BMP180;58740;50.672;18.690;2023-07-29T06:56:02;98488.00;;;22.40
71081;BMP180;58740;50.672;18.690;2023-07-29T06:58:30;98488.20;;;22.50
71081;BMP180;58740;50.672;18.690;2023-07-29T07:00:57;98481.80;;;22.60
71081;BMP180;58740;50.672;18.690;2023-07-29T07:03:25;98480.80;;;22.70
71081;BMP180;58740;50.672;18.690;2023-07-29T07:05:54;98479.00;;;22.80
71081;BMP180;58740;50.672;18.690;2023-07-29T07:08:21;98478.80;;;22.90
71081;BMP180;58740;50.672;18.690;2023-07-29T07:10:49;98477.00;;;22.96
71081;BMP180;58740;50.672;18.690;2023-07-29T07:13:17;98472.60;;;23.06
71081;BMP180;58740;50.672;18.690;2023-07-29T07:15:44;98474.60;;;23.20
71081;BMP180;58740;50.672;18.690;2023-07-29T07:18:12;98472.20;;;23.26
71081;BMP180;58740;50.672;18.690;2023-07-29T07:20:40;98472.20;;;23.30
71081;BMP180;58740;50.672;18.690;2023-07-29T07:23:08;98471.40;;;23.40
71081;BMP180;58740;50.672;18.690;2023-07-29T07:25:38;98477.40;;;23.50
71081;BMP180;58740;50.672;18.690;2023-07-29T07:28:06;98472.00;;;23.60
71081;BMP180;58740;50.672;18.690;2023-07-29T07:30:34;98472.00;;;23.70
71081;BMP180;58740;50.672;18.690;2023-07-29T07:33:02;98474.80;;;23.70
71081;BMP180;58740;50.672;18.690;2023-07-29T07:35:30;98476.60;;;23.70
71081;BMP180;58740;50.672;18.690;2023-07-29T07:37:58;98478.00;;;23.70
71081;BMP180;58740;50.672;18.690;2023-07-29T07:40:27;98476.60;;;23.70
71081;BMP180;58740;50.672;18.690;2023-07-29T07:42:55;98477.40;;;23.78
71081;BMP180;58740;50.672;18.690;2023-07-29T07:45:22;98477.20;;;23.80
71081;BMP180;58740;50.672;18.690;2023-07-29T07:47:52;98474.60;;;23.90
71081;BMP180;58740;50.672;18.690;2023-07-29T07:50:21;98477.60;;;23.90
71081;BMP180;58740;50.672;18.690;2023-07-29T07:52:48;98474.80;;;24.00
71081;BMP180;58740;50.672;18.690;2023-07-29T07:55:16;98474.40;;;24.00
71081;BMP180;58740;50.672;18.690;2023-07-29T07:57:44;98473.00;;;24.00
71081;BMP180;58740;50.672;18.690;2023-07-29T08:00:12;98473.80;;;24.00
71081;BMP180;58740;50.672;18.690;2023-07-29T08:02:43;98473.60;;;24.00
71081;BMP180;58740;50.672;18.690;2023-07-29T08:05:11;98470.20;;;24.00
71081;BMP180;58740;50.672;18.690;2023-07-29T08:07:39;98465.40;;;23.90
71081;BMP180;58740;50.672;18.690;2023-07-29T08:10:07;98459.80;;;23.90
71081;BMP180;58740;50.672;18.690;2023-07-29T08:12:36;98459.20;;;23.92
71081;BMP180;58740;50.672;18.690;2023-07-29T08:15:05;98452.00;;;23.96
71081;BMP180;58740;50.672;18.690;2023-07-29T08:17:33;98459.00;;;23.94
71081;BMP180;58740;50.672;18.690;2023-07-29T08:20:01;98453.00;;;23.90
71081;BMP180;58740;50.672;18.690;2023-07-29T08:22:28;98457.80;;;23.80
71081;BMP180;58740;50.672;18.690;2023-07-29T08:24:56;98459.60;;;23.80
71081;BMP180;58740;50.672;18.690;2023-07-29T08:27:24;98463.80;;;23.80
71081;BMP180;58740;50.672;18.690;2023-07-29T08:29:53;98464.00;;;23.80
71081;BMP180;58740;50.672;18.690;2023-07-29T08:32:21;98469.20;;;23.78
71081;BMP180;58740;50.672;18.690;2023-07-29T08:34:49;98468.80;;;23.72
71081;BMP180;58740;50.672;18.690;2023-07-29T08:37:17;98470.20;;;23.80
71081;BMP180;58740;50.672;18.690;2023-07-29T08:39:44;98469.40;;;23.76
71081;BMP180;58740;50.672;18.690;2023-07-29T08:42:13;98466.00;;;23.74
71081;BMP180;58740;50.672;18.690;2023-07-29T08:44:43;98460.40;;;23.80
71081;BMP180;58740;50.672;18.690;2023-07-29T08:47:12;98454.40;;;23.80
71081;BMP180;58740;50.672;18.690;2023-07-29T08:49:45;98450.80;;;23.90
71081;BMP180;58740;50.672;18.690;2023-07-29T08:52:14;98451.00;;;24.00
71081;BMP180;58740;50.672;18.690;2023-07-29T08:54:42;98452.60;;;24.00
71081;BMP180;58740;50.672;18.690;2023-07-29T08:57:10;98453.40;;;24.10
71081;BMP180;58740;50.672;18.690;2023-07-29T08:59:38;98448.80;;;24.10
71081;BMP180;58740;50.672;18.690;2023-07-29T09:02:06;98446.20;;;24.06
71081;BMP180;58740;50.672;18.690;2023-07-29T09:04:34;98439.00;;;24.00
71081;BMP180;58740;50.672;18.690;2023-07-29T09:07:03;98437.80;;;23.90
71081;BMP180;58740;50.672;18.690;2023-07-29T09:09:32;98436.60;;;23.82
71081;BMP180;58740;50.672;18.690;2023-07-29T09:12:00;98437.00;;;23.80
71081;BMP180;58740;50.672;18.690;2023-07-29T09:14:28;98436.80;;;23.72
71081;BMP180;58740;50.672;18.690;2023-07-29T09:16:56;98432.00;;;23.70
71081;BMP180;58740;50.672;18.690;2023-07-29T09:19:27;98431.20;;;23.66
71081;BMP180;58740;50.672;18.690;2023-07-29T09:21:55;98432.00;;;23.60
71081;BMP180;58740;50.672;18.690;2023-07-29T09:24:23;98432.40;;;23.60
71081;BMP180;58740;50.672;18.690;2023-07-29T09:26:51;98440.00;;;23.58
71081;BMP180;58740;50.672;18.690;2023-07-29T09:29:23;98435.40;;;23.50
71081;BMP180;58740;50.672;18.690;2023-07-29T09:31:51;98435.20;;;23.50
71081;BMP180;58740;50.672;18.690;2023-07-29T09:34:19;98433.00;;;23.40
71081;BMP180;58740;50.672;18.690;2023-07-29T09:36:50;98427.40;;;23.40
71081;BMP180;58740;50.672;18.690;2023-07-29T09:39:23;98427.60;;;23.40
71081;BMP180;58740;50.672;18.690;2023-07-29T09:41:51;98434.40;;;23.40
71081;BMP180;58740;50.672;18.690;2023-07-29T09:44:19;98430.40;;;23.40
71081;BMP180;58740;50.672;18.690;2023-07-29T09:46:46;98426.40;;;23.34
71081;BMP180;58740;50.672;18.690;2023-07-29T09:49:15;98420.20;;;23.34
71081;BMP180;58740;50.672;18.690;2023-07-29T09:51:42;98417.00;;;23.32
71081;BMP180;58740;50.672;18.690;2023-07-29T09:54:10;98413.80;;;23.30
71081;BMP180;58740;50.672;18.690;2023-07-29T09:56:41;98412.60;;;23.30
71081;BMP180;58740;50.672;18.690;2023-07-29T09:59:12;98406.00;;;23.40
71081;BMP180;58740;50.672;18.690;2023-07-29T10:01:41;98410.00;;;23.50
71081;BMP180;58740;50.672;18.690;2023-07-29T10:04:10;98403.80;;;23.60
71081;BMP180;58740;50.672;18.690;2023-07-29T10:06:41;98395.80;;;23.70
71081;BMP180;58740;50.672;18.690;2023-07-29T10:09:13;98396.80;;;23.80
71081;BMP180;58740;50.672;18.690;2023-07-29T10:11:41;98390.80;;;23.90
71081;BMP180;58740;50.672;18.690;2023-07-29T10:14:09;98389.20;;;23.90
71081;BMP180;58740;50.672;18.690;2023-07-29T10:16:40;98385.80;;;23.90
71081;BMP180;58740;50.672;18.690;2023-07-29T10:19:09;98384.40;;;24.00
71081;BMP180;58740;50.672;18.690;2023-07-29T10:21:39;98383.80;;;24.06
71081;BMP180;58740;50.672;18.690;2023-07-29T10:24:15;98390.20;;;24.10
71081;BMP180;58740;50.672;18.690;2023-07-29T10:26:50;98387.40;;;24.20
71081;BMP180;58740;50.672;18.690;2023-07-29T10:29:23;98384.60;;;24.30
71081;BMP180;58740;50.672;18.690;2023-07-29T10:31:53;98385.00;;;24.38
71081;BMP180;58740;50.672;18.690;2023-07-29T10:34:22;98381.80;;;24.40
71081;BMP180;58740;50.672;18.690;2023-07-29T10:36:51;98378.00;;;24.50
71081;BMP180;58740;50.672;18.690;2023-07-29T10:39:20;98370.80;;;24.50
71081;BMP180;58740;50.672;18.690;2023-07-29T10:42:01;98366.20;;;24.50
71081;BMP180;58740;50.672;18.690;2023-07-29T10:47:27;98376.60;;;24.60
71081;BMP180;58740;50.672;18.690;2023-07-29T10:49:59;98369.00;;;24.60
71081;BMP180;58740;50.672;18.690;2023-07-29T10:52:31;98371.40;;;24.68
71081;BMP180;58740;50.672;18.690;2023-07-29T10:54:59;98363.00;;;24.70
71081;BMP180;58740;50.672;18.690;2023-07-29T10:57:37;98363.20;;;24.70
71081;BMP180;58740;50.672;18.690;2023-07-29T11:00:06;98352.60;;;24.72
71081;BMP180;58740;50.672;18.690;2023-07-29T11:02:36;98361.00;;;24.80
71081;BMP180;58740;50.672;18.690;2023-07-29T11:05:07;98359.60;;;24.82
71081;BMP180;58740;50.672;18.690;2023-07-29T11:07:48;98353.60;;;24.90
71081;BMP180;58740;50.672;18.690;2023-07-29T11:10:16;98359.00;;;24.92
71081;BMP180;58740;50.672;18.690;2023-07-29T11:12:49;98351.20;;;25.00
71081;BMP180;58740;50.672;18.690;2023-07-29T11:15:28;98350.20;;;25.00
71081;BMP180;58740;50.672;18.690;2023-07-29T11:18:01;98342.60;;;25.00
71081;BMP180;58740;50.672;18.690;2023-07-29T11:20:32;98341.20;;;25.00
71081;BMP180;58740;50.672;18.690;2023-07-29T11:23:03;98336.60;;;25.00
71081;BMP180;58740;50.672;18.690;2023-07-29T11:25:32;98339.60;;;25.00
71081;BMP180;58740;50.672;18.690;2023-07-29T11:28:01;98333.00;;;24.98
71081;BMP180;58740;50.672;18.690;2023-07-29T11:30:33;98329.60;;;24.96
71081;BMP180;58740;50.672;18.690;2023-07-29T11:33:02;98328.60;;;25.00
71081;BMP180;58740;50.672;18.690;2023-07-29T11:35:32;98332.80;;;25.00
71081;BMP180;58740;50.672;18.690;2023-07-29T11:37:59;98316.60;;;25.00
71081;BMP180;58740;50.672;18.690;2023-07-29T11:40:27;98319.60;;;25.00
71081;BMP180;58740;50.672;18.690;2023-07-29T11:42:55;98310.00;;;25.00
71081;BMP180;58740;50.672;18.690;2023-07-29T11:45:23;98312.60;;;25.00
71081;BMP180;58740;50.672;18.690;2023-07-29T11:48:06;98312.40;;;25.00
71081;BMP180;58740;50.672;18.690;2023-07-29T11:50:35;98305.60;;;24.92
71081;BMP180;58740;50.672;18.690;2023-07-29T11:53:02;98305.80;;;25.00
71081;BMP180;58740;50.672;18.690;2023-07-29T11:55:30;98301.80;;;25.00
71081;BMP180;58740;50.672;18.690;2023-07-29T11:57:58;98305.20;;;25.02
71081;BMP180;58740;50.672;18.690;2023-07-29T12:00:26;98307.00;;;25.00
71081;BMP180;58740;50.672;18.690;2023-07-29T12:02:54;98307.80;;;25.00
71081;BMP180;58740;50.672;18.690;2023-07-29T12:05:24;98307.00;;;25.02
71081;BMP180;58740;50.672;18.690;2023-07-29T12:07:52;98304.00;;;25.10
71081;BMP180;58740;50.672;18.690;2023-07-29T12:10:20;98295.00;;;25.10
71081;BMP180;58740;50.672;18.690;2023-07-29T12:12:50;98295.00;;;25.10
71081;BMP180;58740;50.672;18.690;2023-07-29T12:15:26;98294.20;;;25.16
71081;BMP180;58740;50.672;18.690;2023-07-29T12:17:59;98296.20;;;25.20
71081;BMP180;58740;50.672;18.690;2023-07-29T12:20:29;98294.20;;;25.18
71081;BMP180;58740;50.672;18.690;2023-07-29T12:22:59;98283.60;;;25.20
71081;BMP180;58740;50.672;18.690;2023-07-29T12:25:32;98283.20;;;25.30
71081;BMP180;58740;50.672;18.690;2023-07-29T12:28:05;98275.20;;;25.30
71081;BMP180;58740;50.672;18.690;2023-07-29T12:30:41;98275.60;;;25.42
71081;BMP180;58740;50.672;18.690;2023-07-29T12:33:09;98274.20;;;25.50
71081;BMP180;58740;50.672;18.690;2023-07-29T12:35:37;98267.20;;;25.60
71081;BMP180;58740;50.672;18.690;2023-07-29T12:38:06;98271.20;;;25.56
71081;BMP180;58740;50.672;18.690;2023-07-29T12:40:38;98272.00;;;25.50
71081;BMP180;58740;50.672;18.690;2023-07-29T12:43:07;98268.80;;;25.50
71081;BMP180;58740;50.672;18.690;2023-07-29T12:45:36;98267.20;;;25.40
71081;BMP180;58740;50.672;18.690;2023-07-29T12:48:10;98261.00;;;25.40
71081;BMP180;58740;50.672;18.690;2023-07-29T12:50:40;98268.20;;;25.40
71081;BMP180;58740;50.672;18.690;2023-07-29T12:53:09;98266.80;;;25.30
71081;BMP180;58740;50.672;18.690;2023-07-29T12:55:39;98270.20;;;25.30
71081;BMP180;58740;50.672;18.690;2023-07-29T12:58:07;98265.40;;;25.30
71081;BMP180;58740;50.672;18.690;2023-07-29T13:00:35;98271.20;;;25.30
71081;BMP180;58740;50.672;18.690;2023-07-29T13:03:02;98266.80;;;25.30
71081;BMP180;58740;50.672;18.690;2023-07-29T13:05:33;98259.20;;;25.30
71081;BMP180;58740;50.672;18.690;2023-07-29T13:08:01;98263.40;;;25.30
71081;BMP180;58740;50.672;18.690;2023-07-29T13:10:29;98261.60;;;25.30
71081;BMP180;58740;50.672;18.690;2023-07-29T13:12:56;98260.20;;;25.20
71081;BMP180;58740;50.672;18.690;2023-07-29T13:15:24;98262.00;;;25.20
71081;BMP180;58740;50.672;18.690;2023-07-29T13:17:52;98258.40;;;25.20
71081;BMP180;58740;50.672;18.690;2023-07-29T13:20:20;98260.60;;;25.20
71081;BMP180;58740;50.672;18.690;2023-07-29T13:22:47;98260.20;;;25.20
71081;BMP180;58740;50.672;18.690;2023-07-29T13:25:15;98264.20;;;25.20
71081;BMP180;58740;50.672;18.690;2023-07-29T13:27:43;98257.80;;;25.20
71081;BMP180;58740;50.672;18.690;2023-07-29T13:30:11;98252.00;;;25.20
71081;BMP180;58740;50.672;18.690;2023-07-29T13:32:38;98251.80;;;25.24
71081;BMP180;58740;50.672;18.690;2023-07-29T13:35:07;98245.00;;;25.30
71081;BMP180;58740;50.672;18.690;2023-07-29T13:37:35;98249.00;;;25.38
71081;BMP180;58740;50.672;18.690;2023-07-29T13:40:03;98248.40;;;25.42
71081;BMP180;58740;50.672;18.690;2023-07-29T13:42:31;98236.60;;;25.50
71081;BMP180;58740;50.672;18.690;2023-07-29T13:44:58;98230.00;;;25.60
71081;BMP180;58740;50.672;18.690;2023-07-29T13:47:26;98228.60;;;25.60
71081;BMP180;58740;50.672;18.690;2023-07-29T13:49:54;98227.00;;;25.60
71081;BMP180;58740;50.672;18.690;2023-07-29T13:52:21;98238.80;;;25.64
71081;BMP180;58740;50.672;18.690;2023-07-29T13:54:49;98242.60;;;25.70
71081;BMP180;58740;50.672;18.690;2023-07-29T13:57:17;98240.80;;;25.70
71081;BMP180;58740;50.672;18.690;2023-07-29T13:59:45;98236.40;;;25.70
71081;BMP180;58740;50.672;18.690;2023-07-29T14:02:13;98227.40;;;25.70
71081;BMP180;58740;50.672;18.690;2023-07-29T14:04:41;98224.80;;;25.64
71081;BMP180;58740;50.672;18.690;2023-07-29T14:07:09;98225.40;;;25.60
71081;BMP180;58740;50.672;18.690;2023-07-29T14:09:36;98219.80;;;25.60
71081;BMP180;58740;50.672;18.690;2023-07-29T14:12:06;98219.20;;;25.60
71081;BMP180;58740;50.672;18.690;2023-07-29T14:14:34;98207.00;;;25.60